sensor_id;sensor_type;location;lat;lon;timestamp;temperature;humidity
20463;DHT22;10390;53.566;9.980;2023-02-03T00:01:59;25.30;1.00
20463;DHT22;10390;53.566;9.980;2023-02-03T00:04:24;25.30;1.00
20463;DHT22;10390;53.566;9.980;2023-02-03T00:06:50;25.30;1.00
20463;DHT22;10390;53.566;9.980;2023-02-03T00:09:16;25.30;1.00
20463;DHT22;10390;53.566;9.980;2023-02-03T00:11:41;25.30;1.00
20463;DHT22;10390;53.566;9.980;2023-02-03T00:14:07;25.30;1.00
20463;DHT22;10390;53.566;9.980;2023-02-03T00:16:33;25.30;1.00
20463;DHT22;10390;53.566;9.980;2023-02-03T00:18:59;25.30;1.00
20463;DHT22;10390;53.566;9.980;2023-02-03T00:21:25;25.30;1.00
20463;DHT22;10390;53.566;9.980;2023-02-03T00:23:50;25.20;1.00
20463;DHT22;10390;53.566;9.980;2023-02-03T00:26:16;25.10;1.00
20463;DHT22;10390;53.566;9.980;2023-02-03T00:28:42;25.10;1.00
20463;DHT22;10390;53.566;9.980;2023-02-03T00:31:19;25.10;1.00
20463;DHT22;10390;53.566;9.980;2023-02-03T00:33:45;25.00;1.00
20463;DHT22;10390;53.566;9.980;2023-02-03T00:36:11;24.90;1.00
20463;DHT22;10390;53.566;9.980;2023-02-03T00:38:37;24.90;1.00
20463;DHT22;10390;53.566;9.980;2023-02-03T00:41:02;24.90;1.00
20463;DHT22;10390;53.566;9.980;2023-02-03T00:43:28;24.90;1.00
20463;DHT22;10390;53.566;9.980;2023-02-03T00:45:53;24.90;1.00
20463;DHT22;10390;53.566;9.980;2023-02-03T00:48:19;24.90;1.00
20463;DHT22;10390;53.566;9.980;2023-02-03T00:50:48;24.90;1.00
20463;DHT22;10390;53.566;9.980;2023-02-03T00:53:13;24.90;1.00
20463;DHT22;10390;53.566;9.980;2023-02-03T00:55:41;25.00;1.00
20463;DHT22;10390;53.566;9.980;2023-02-03T00:58:06;25.10;1.00
20463;DHT22;10390;53.566;9.980;2023-02-03T01:00:32;25.10;1.00
20463;DHT22;10390;53.566;9.980;2023-02-03T01:02:57;25.20;1.00
20463;DHT22;10390;53.566;9.980;2023-02-03T01:05:23;25.20;1.00
20463;DHT22;10390;53.566;9.980;2023-02-03T01:07:49;25.20;1.00
20463;DHT22;10390;53.566;9.980;2023-02-03T01:10:15;25.30;1.00
20463;DHT22;10390;53.566;9.980;2023-02-03T01:12:40;25.30;1.00
20463;DHT22;10390;53.566;9.980;2023-02-03T01:15:06;25.30;1.00
20463;DHT22;10390;53.566;9.980;2023-02-03T01:17:32;25.30;1.00
20463;DHT22;10390;53.566;9.980;2023-02-03T01:19:57;25.30;1.00
20463;DHT22;10390;53.566;9.980;2023-02-03T01:22:23;25.30;1.00
20463;DHT22;10390;53.566;9.980;2023-02-03T01:24:49;25.30;1.00
20463;DHT22;10390;53.566;9.980;2023-02-03T01:27:14;25.20;1.00
20463;DHT22;10390;53.566;9.980;2023-02-03T01:29:40;25.20;1.00
20463;DHT22;10390;53.566;9.980;2023-02-03T01:32:05;25.10;1.00
20463;DHT22;10390;53.566;9.980;2023-02-03T01:34:31;25.10;1.00
20463;DHT22;10390;53.566;9.980;2023-02-03T01:36:56;25.00;1.00
20463;DHT22;10390;53.566;9.980;2023-02-03T01:39:22;25.00;1.00
20463;DHT22;10390;53.566;9.980;2023-02-03T01:41:48;25.00;1.00
20463;DHT22;10390;53.566;9.980;2023-02-03T01:47:34;25.00;1.00
20463;DHT22;10390;53.566;9.980;2023-02-03T01:52:26;25.00;1.00
20463;DHT22;10390;53.566;9.980;2023-02-03T01:54:55;25.10;1.00
20463;DHT22;10390;53.566;9.980;2023-02-03T01:57:25;25.10;1.00
20463;DHT22;10390;53.566;9.980;2023-02-03T01:59:53;25.10;1.00
20463;DHT22;10390;53.566;9.980;2023-02-03T02:02:21;25.10;1.00
20463;DHT22;10390;53.566;9.980;2023-02-03T02:07:33;25.20;1.00
20463;DHT22;10390;53.566;9.980;2023-02-03T02:10:01;25.30;1.00
20463;DHT22;10390;53.566;9.980;2023-02-03T02:12:27;25.30;1.00
20463;DHT22;10390;53.566;9.980;2023-02-03T02:14:53;25.30;1.00
20463;DHT22;10390;53.566;9.980;2023-02-03T02:17:29;25.30;1.00
20463;DHT22;10390;53.566;9.980;2023-02-03T02:22:59;25.30;1.00
20463;DHT22;10390;53.566;9.980;2023-02-03T02:26:06;25.30;1.00
20463;DHT22;10390;53.566;9.980;2023-02-03T02:34:24;25.30;1.00
20463;DHT22;10390;53.566;9.980;2023-02-03T02:37:11;25.20;1.00
20463;DHT22;10390;53.566;9.980;2023-02-03T02:42:43;25.10;1.00
20463;DHT22;10390;53.566;9.980;2023-02-03T02:45:21;25.10;1.00
20463;DHT22;10390;53.566;9.980;2023-02-03T02:47:56;25.10;1.00
20463;DHT22;10390;53.566;9.980;2023-02-03T02:50:26;25.10;1.00
20463;DHT22;10390;53.566;9.980;2023-02-03T02:52:53;25.00;1.00
20463;DHT22;10390;53.566;9.980;2023-02-03T02:55:23;25.10;1.00
20463;DHT22;10390;53.566;9.980;2023-02-03T02:57:54;25.10;1.00
20463;DHT22;10390;53.566;9.980;2023-02-03T03:00:20;25.10;1.00
20463;DHT22;10390;53.566;9.980;2023-02-03T03:02:46;25.10;1.00
20463;DHT22;10390;53.566;9.980;2023-02-03T03:05:12;25.10;1.00
20463;DHT22;10390;53.566;9.980;2023-02-03T03:07:44;25.20;1.00
20463;DHT22;10390;53.566;9.980;2023-02-03T03:10:15;25.20;1.00
20463;DHT22;10390;53.566;9.980;2023-02-03T03:12:49;25.20;1.00
20463;DHT22;10390;53.566;9.980;2023-02-03T03:15:21;25.30;1.00
20463;DHT22;10390;53.566;9.980;2023-02-03T03:18:00;25.30;1.00
20463;DHT22;10390;53.566;9.980;2023-02-03T03:20:27;25.30;1.00
20463;DHT22;10390;53.566;9.980;2023-02-03T03:23:04;25.30;1.00
20463;DHT22;10390;53.566;9.980;2023-02-03T03:25:38;25.30;1.00
20463;DHT22;10390;53.566;9.980;2023-02-03T03:28:11;25.30;1.00
20463;DHT22;10390;53.566;9.980;2023-02-03T03:30:38;25.30;1.00
20463;DHT22;10390;53.566;9.980;2023-02-03T03:33:05;25.30;1.00
20463;DHT22;10390;53.566;9.980;2023-02-03T03:35:47;25.30;1.00
20463;DHT22;10390;53.566;9.980;2023-02-03T03:38:43;25.30;1.00
20463;DHT22;10390;53.566;9.980;2023-02-03T03:41:19;25.30;1.00
20463;DHT22;10390;53.566;9.980;2023-02-03T03:43:51;25.30;1.00
20463;DHT22;10390;53.566;9.980;2023-02-03T03:46:22;25.30;1.00
20463;DHT22;10390;53.566;9.980;2023-02-03T03:49:01;25.30;1.00
20463;DHT22;10390;53.566;9.980;2023-02-03T03:51:41;25.30;1.00
20463;DHT22;10390;53.566;9.980;2023-02-03T03:54:12;25.20;1.00
20463;DHT22;10390;53.566;9.980;2023-02-03T03:59:31;25.10;1.00
20463;DHT22;10390;53.566;9.980;2023-02-03T04:01:58;25.20;1.00
20463;DHT22;10390;53.566;9.980;2023-02-03T04:04:29;25.10;1.00
20463;DHT22;10390;53.566;9.980;2023-02-03T04:06:56;25.10;1.00
20463;DHT22;10390;53.566;9.980;2023-02-03T04:09:22;25.20;1.00
20463;DHT22;10390;53.566;9.980;2023-02-03T04:11:47;25.20;1.00
20463;DHT22;10390;53.566;9.980;2023-02-03T04:14:26;25.10;1.00
20463;DHT22;10390;53.566;9.980;2023-02-03T04:16:52;25.20;1.00
20463;DHT22;10390;53.566;9.980;2023-02-03T04:19:17;25.20;1.00
20463;DHT22;10390;53.566;9.980;2023-02-03T04:21:43;25.20;1.00
20463;DHT22;10390;53.566;9.980;2023-02-03T04:24:09;25.20;1.00
20463;DHT22;10390;53.566;9.980;2023-02-03T04:26:34;25.20;1.00
20463;DHT22;10390;53.566;9.980;2023-02-03T04:29:00;25.30;1.00
20463;DHT22;10390;53.566;9.980;2023-02-03T04:31:25;25.30;1.00
20463;DHT22;10390;53.566;9.980;2023-02-03T04:33:51;25.30;1.00
20463;DHT22;10390;53.566;9.980;2023-02-03T04:36:17;25.30;1.00
20463;DHT22;10390;53.566;9.980;2023-02-03T04:38:42;25.30;1.00
20463;DHT22;10390;53.566;9.980;2023-02-03T04:41:08;25.30;1.00
20463;DHT22;10390;53.566;9.980;2023-02-03T04:43:33;25.30;1.00
20463;DHT22;10390;53.566;9.980;2023-02-03T04:45:59;25.30;1.00
20463;DHT22;10390;53.566;9.980;2023-02-03T04:48:25;25.30;1.00
20463;DHT22;10390;53.566;9.980;2023-02-03T04:50:51;25.30;1.00
20463;DHT22;10390;53.566;9.980;2023-02-03T04:53:19;25.30;1.00
20463;DHT22;10390;53.566;9.980;2023-02-03T04:55:46;25.30;1.00
20463;DHT22;10390;53.566;9.980;2023-02-03T04:58:12;25.20;1.00
20463;DHT22;10390;53.566;9.980;2023-02-03T05:00:38;25.20;1.00
20463;DHT22;10390;53.566;9.980;2023-02-03T05:03:04;25.20;1.00
20463;DHT22;10390;53.566;9.980;2023-02-03T05:05:29;25.20;1.00
20463;DHT22;10390;53.566;9.980;2023-02-03T05:07:55;25.20;1.00
20463;DHT22;10390;53.566;9.980;2023-02-03T05:10:20;25.20;1.00
20463;DHT22;10390;53.566;9.980;2023-02-03T05:12:46;25.20;1.00
20463;DHT22;10390;53.566;9.980;2023-02-03T05:15:12;25.10;1.00
20463;DHT22;10390;53.566;9.980;2023-02-03T05:17:37;25.20;1.00
20463;DHT22;10390;53.566;9.980;2023-02-03T05:20:04;25.20;1.00
20463;DHT22;10390;53.566;9.980;2023-02-03T05:22:29;25.10;1.00
20463;DHT22;10390;53.566;9.980;2023-02-03T05:24:55;25.10;1.00
20463;DHT22;10390;53.566;9.980;2023-02-03T05:27:20;25.10;1.00
20463;DHT22;10390;53.566;9.980;2023-02-03T05:29:46;25.10;1.00
20463;DHT22;10390;53.566;9.980;2023-02-03T05:32:11;25.10;1.00
20463;DHT22;10390;53.566;9.980;2023-02-03T05:34:37;25.10;1.00
20463;DHT22;10390;53.566;9.980;2023-02-03T05:37:02;25.10;1.00
20463;DHT22;10390;53.566;9.980;2023-02-03T05:39:28;25.10;1.00
20463;DHT22;10390;53.566;9.980;2023-02-03T05:41:54;25.10;1.00
20463;DHT22;10390;53.566;9.980;2023-02-03T05:44:22;25.10;1.00
20463;DHT22;10390;53.566;9.980;2023-02-03T05:46:48;25.10;1.00
20463;DHT22;10390;53.566;9.980;2023-02-03T05:49:14;25.10;1.00
20463;DHT22;10390;53.566;9.980;2023-02-03T05:51:40;25.10;1.00
20463;DHT22;10390;53.566;9.980;2023-02-03T05:54:06;25.10;1.00
20463;DHT22;10390;53.566;9.980;2023-02-03T05:56:32;25.00;1.00
20463;DHT22;10390;53.566;9.980;2023-02-03T05:58:57;25.00;1.00
20463;DHT22;10390;53.566;9.980;2023-02-03T06:01:23;25.00;1.00
20463;DHT22;10390;53.566;9.980;2023-02-03T06:03:49;25.00;1.00
20463;DHT22;10390;53.566;9.980;2023-02-03T06:06:15;25.00;1.00
20463;DHT22;10390;53.566;9.980;2023-02-03T06:08:41;24.90;1.00
20463;DHT22;10390;53.566;9.980;2023-02-03T06:11:07;25.00;1.00
20463;DHT22;10390;53.566;9.980;2023-02-03T06:13:33;25.00;1.00
20463;DHT22;10390;53.566;9.980;2023-02-03T06:15:58;25.00;1.00
20463;DHT22;10390;53.566;9.980;2023-02-03T06:18:24;25.00;1.00
20463;DHT22;10390;53.566;9.980;2023-02-03T06:20:50;25.00;1.00
20463;DHT22;10390;53.566;9.980;2023-02-03T06:23:16;25.00;1.00
20463;DHT22;10390;53.566;9.980;2023-02-03T06:25:44;25.10;1.00
20463;DHT22;10390;53.566;9.980;2023-02-03T06:28:09;25.10;1.00
20463;DHT22;10390;53.566;9.980;2023-02-03T06:30:35;25.10;1.00
20463;DHT22;10390;53.566;9.980;2023-02-03T06:33:01;25.10;1.00
20463;DHT22;10390;53.566;9.980;2023-02-03T06:35:27;25.10;1.00
20463;DHT22;10390;53.566;9.980;2023-02-03T06:37:53;25.10;1.00
20463;DHT22;10390;53.566;9.980;2023-02-03T06:40:18;25.10;1.00
20463;DHT22;10390;53.566;9.980;2023-02-03T06:42:45;25.10;1.00
20463;DHT22;10390;53.566;9.980;2023-02-03T06:45:11;25.10;1.00
20463;DHT22;10390;53.566;9.980;2023-02-03T06:47:39;25.10;1.00
20463;DHT22;10390;53.566;9.980;2023-02-03T06:50:05;25.10;1.00
20463;DHT22;10390;53.566;9.980;2023-02-03T06:52:31;25.10;1.00
20463;DHT22;10390;53.566;9.980;2023-02-03T06:54:57;25.00;1.00
20463;DHT22;10390;53.566;9.980;2023-02-03T06:57:22;25.00;1.00
20463;DHT22;10390;53.566;9.980;2023-02-03T06:59:48;25.00;1.00
20463;DHT22;10390;53.566;9.980;2023-02-03T07:02:13;24.90;1.00
20463;DHT22;10390;53.566;9.980;2023-02-03T07:04:39;24.90;1.00
20463;DHT22;10390;53.566;9.980;2023-02-03T07:07:05;24.90;1.00
20463;DHT22;10390;53.566;9.980;2023-02-03T07:09:30;24.80;1.00
20463;DHT22;10390;53.566;9.980;2023-02-03T07:11:56;24.90;1.00
20463;DHT22;10390;53.566;9.980;2023-02-03T07:14:21;24.80;1.00
20463;DHT22;10390;53.566;9.980;2023-02-03T07:16:47;24.80;1.00
20463;DHT22;10390;53.566;9.980;2023-02-03T07:19:13;24.80;1.00
20463;DHT22;10390;53.566;9.980;2023-02-03T07:21:38;24.80;1.00
20463;DHT22;10390;53.566;9.980;2023-02-03T07:24:04;24.80;1.00
20463;DHT22;10390;53.566;9.980;2023-02-03T07:26:30;24.90;1.00
20463;DHT22;10390;53.566;9.980;2023-02-03T07:28:55;24.90;1.00
20463;DHT22;10390;53.566;9.980;2023-02-03T07:31:24;24.90;1.00
20463;DHT22;10390;53.566;9.980;2023-02-03T07:33:50;24.90;1.00
20463;DHT22;10390;53.566;9.980;2023-02-03T07:36:15;24.90;1.00
20463;DHT22;10390;53.566;9.980;2023-02-03T07:38:41;24.90;1.00
20463;DHT22;10390;53.566;9.980;2023-02-03T07:41:06;24.90;1.00
20463;DHT22;10390;53.566;9.980;2023-02-03T07:43:32;24.90;1.00
20463;DHT22;10390;53.566;9.980;2023-02-03T07:45:58;24.90;1.00
20463;DHT22;10390;53.566;9.980;2023-02-03T07:48:24;24.90;1.00
20463;DHT22;10390;53.566;9.980;2023-02-03T07:50:49;24.90;1.00
20463;DHT22;10390;53.566;9.980;2023-02-03T07:53:17;24.80;1.00
20463;DHT22;10390;53.566;9.980;2023-02-03T07:55:42;24.80;1.00
20463;DHT22;10390;53.566;9.980;2023-02-03T07:58:08;24.80;1.00
20463;DHT22;10390;53.566;9.980;2023-02-03T08:00:34;24.70;1.00
20463;DHT22;10390;53.566;9.980;2023-02-03T08:03:00;24.70;1.00
20463;DHT22;10390;53.566;9.980;2023-02-03T08:05:26;24.70;1.00
20463;DHT22;10390;53.566;9.980;2023-02-03T08:07:51;24.60;1.00
20463;DHT22;10390;53.566;9.980;2023-02-03T08:10:17;24.60;1.00
20463;DHT22;10390;53.566;9.980;2023-02-03T08:12:43;24.60;1.00
20463;DHT22;10390;53.566;9.980;2023-02-03T08:15:10;24.50;1.00
20463;DHT22;10390;53.566;9.980;2023-02-03T08:17:36;24.50;1.00
20463;DHT22;10390;53.566;9.980;2023-02-03T08:20:05;24.50;1.00
20463;DHT22;10390;53.566;9.980;2023-02-03T08:22:30;24.60;1.00
20463;DHT22;10390;53.566;9.980;2023-02-03T08:24:56;24.60;1.00
20463;DHT22;10390;53.566;9.980;2023-02-03T08:27:22;24.50;1.00
20463;DHT22;10390;53.566;9.980;2023-02-03T08:29:48;24.60;1.00
20463;DHT22;10390;53.566;9.980;2023-02-03T08:32:16;24.70;1.00
20463;DHT22;10390;53.566;9.980;2023-02-03T08:34:43;24.70;1.00
20463;DHT22;10390;53.566;9.980;2023-02-03T08:37:10;24.70;1.00
20463;DHT22;10390;53.566;9.980;2023-02-03T08:39:37;24.70;1.00
20463;DHT22;10390;53.566;9.980;2023-02-03T08:42:03;24.70;1.00
20463;DHT22;10390;53.566;9.980;2023-02-03T08:44:33;24.70;1.00
20463;DHT22;10390;53.566;9.980;2023-02-03T08:46:59;24.70;1.00
20463;DHT22;10390;53.566;9.980;2023-02-03T08:49:27;24.70;1.00
20463;DHT22;10390;53.566;9.980;2023-02-03T08:51:53;24.70;1.00
20463;DHT22;10390;53.566;9.980;2023-02-03T08:54:19;24.70;1.00
20463;DHT22;10390;53.566;9.980;2023-02-03T08:56:46;24.70;1.00
20463;DHT22;10390;53.566;9.980;2023-02-03T08:59:12;24.70;1.00
20463;DHT22;10390;53.566;9.980;2023-02-03T09:01:38;24.60;1.00
20463;DHT22;10390;53.566;9.980;2023-02-03T09:04:11;24.60;1.00
20463;DHT22;10390;53.566;9.980;2023-02-03T09:06:37;24.60;1.00
20463;DHT22;10390;53.566;9.980;2023-02-03T09:09:03;24.50;1.00
20463;DHT22;10390;53.566;9.980;2023-02-03T09:11:28;24.60;1.00
20463;DHT22;10390;53.566;9.980;2023-02-03T09:13:54;24.50;1.00
20463;DHT22;10390;53.566;9.980;2023-02-03T09:16:22;24.50;1.00
20463;DHT22;10390;53.566;9.980;2023-02-03T09:18:49;24.50;1.00
20463;DHT22;10390;53.566;9.980;2023-02-03T09:21:16;24.50;1.00
20463;DHT22;10390;53.566;9.980;2023-02-03T09:23:42;24.50;1.00
20463;DHT22;10390;53.566;9.980;2023-02-03T09:26:11;24.50;1.00
20463;DHT22;10390;53.566;9.980;2023-02-03T09:28:37;24.50;1.00
20463;DHT22;10390;53.566;9.980;2023-02-03T09:31:05;24.50;1.00
20463;DHT22;10390;53.566;9.980;2023-02-03T09:33:31;24.50;1.00
20463;DHT22;10390;53.566;9.980;2023-02-03T09:35:57;24.50;1.00
20463;DHT22;10390;53.566;9.980;2023-02-03T09:38:23;24.50;1.00
20463;DHT22;10390;53.566;9.980;2023-02-03T09:40:55;24.50;1.00
20463;DHT22;10390;53.566;9.980;2023-02-03T09:43:36;24.50;1.00
20463;DHT22;10390;53.566;9.980;2023-02-03T09:46:16;24.50;1.00
20463;DHT22;10390;53.566;9.980;2023-02-03T09:48:48;24.50;1.00
20463;DHT22;10390;53.566;9.980;2023-02-03T09:51:21;24.50;1.00
20463;DHT22;10390;53.566;9.980;2023-02-03T09:53:54;24.50;1.00
20463;DHT22;10390;53.566;9.980;2023-02-03T09:56:27;24.50;1.00
20463;DHT22;10390;53.566;9.980;2023-02-03T09:58:54;24.50;1.00
20463;DHT22;10390;53.566;9.980;2023-02-03T10:01:20;24.50;1.00
20463;DHT22;10390;53.566;9.980;2023-02-03T10:09:00;24.40;1.00
20463;DHT22;10390;53.566;9.980;2023-02-03T10:14:34;24.40;1.00
20463;DHT22;10390;53.566;9.980;2023-02-03T10:20:03;24.40;1.00
20463;DHT22;10390;53.566;9.980;2023-02-03T10:22:33;24.30;1.00
20463;DHT22;10390;53.566;9.980;2023-02-03T10:27:45;24.30;1.00
20463;DHT22;10390;53.566;9.980;2023-02-03T10:30:26;24.30;1.00
20463;DHT22;10390;53.566;9.980;2023-02-03T10:33:01;24.30;1.00
20463;DHT22;10390;53.566;9.980;2023-02-03T10:36:02;24.30;1.00
20463;DHT22;10390;53.566;9.980;2023-02-03T10:38:34;24.30;1.00
20463;DHT22;10390;53.566;9.980;2023-02-03T10:41:04;24.30;1.00
20463;DHT22;10390;53.566;9.980;2023-02-03T10:43:31;24.30;1.00
20463;DHT22;10390;53.566;9.980;2023-02-03T10:46:16;24.30;1.00
20463;DHT22;10390;53.566;9.980;2023-02-03T10:48:42;24.30;1.00
20463;DHT22;10390;53.566;9.980;2023-02-03T10:51:24;24.40;1.00
20463;DHT22;10390;53.566;9.980;2023-02-03T10:53:51;24.30;1.00
20463;DHT22;10390;53.566;9.980;2023-02-03T10:56:37;24.30;1.00
20463;DHT22;10390;53.566;9.980;2023-02-03T10:59:03;24.40;1.00
20463;DHT22;10390;53.566;9.980;2023-02-03T11:01:45;24.40;1.00
20463;DHT22;10390;53.566;9.980;2023-02-03T11:04:29;24.40;1.00
20463;DHT22;10390;53.566;9.980;2023-02-03T11:07:00;24.40;1.00
20463;DHT22;10390;53.566;9.980;2023-02-03T11:09:40;24.40;1.00
20463;DHT22;10390;53.566;9.980;2023-02-03T11:12:19;24.30;1.00
20463;DHT22;10390;53.566;9.980;2023-02-03T11:14:50;24.40;1.00
20463;DHT22;10390;53.566;9.980;2023-02-03T11:17:23;24.40;1.00
20463;DHT22;10390;53.566;9.980;2023-02-03T11:19:52;24.40;1.00
20463;DHT22;10390;53.566;9.980;2023-02-03T11:22:30;24.40;1.00
20463;DHT22;10390;53.566;9.980;2023-02-03T11:24:57;24.40;1.00
20463;DHT22;10390;53.566;9.980;2023-02-03T11:27:24;24.40;1.00
20463;DHT22;10390;53.566;9.980;2023-02-03T11:30:10;24.40;1.00
20463;DHT22;10390;53.566;9.980;2023-02-03T11:32:40;24.30;1.00
20463;DHT22;10390;53.566;9.980;2023-02-03T11:35:13;24.40;1.00
20463;DHT22;10390;53.566;9.980;2023-02-03T11:37:42;24.30;1.00
20463;DHT22;10390;53.566;9.980;2023-02-03T11:42:44;24.30;1.00
20463;DHT22;10390;53.566;9.980;2023-02-03T11:47:46;24.30;1.00
20463;DHT22;10390;53.566;9.980;2023-02-03T11:52:59;24.30;1.00
20463;DHT22;10390;53.566;9.980;2023-02-03T11:58:31;24.40;1.00
20463;DHT22;10390;53.566;9.980;2023-02-03T12:06:49;24.50;1.00
20463;DHT22;10390;53.566;9.980;2023-02-03T12:09:38;24.50;1.00
20463;DHT22;10390;53.566;9.980;2023-02-03T12:30:45;24.60;1.00
20463;DHT22;10390;53.566;9.980;2023-02-03T12:33:22;24.50;1.00
20463;DHT22;10390;53.566;9.980;2023-02-03T12:35:51;24.60;1.00
20463;DHT22;10390;53.566;9.980;2023-02-03T12:38:42;24.60;1.00
20463;DHT22;10390;53.566;9.980;2023-02-03T12:41:15;24.60;1.00
20463;DHT22;10390;53.566;9.980;2023-02-03T12:43:49;24.50;1.00
20463;DHT22;10390;53.566;9.980;2023-02-03T12:46:21;24.50;1.00
20463;DHT22;10390;53.566;9.980;2023-02-03T12:48:53;24.50;1.00
20463;DHT22;10390;53.566;9.980;2023-02-03T12:51:42;24.40;1.00
20463;DHT22;10390;53.566;9.980;2023-02-03T12:57:29;24.40;1.00
20463;DHT22;10390;53.566;9.980;2023-02-03T13:00:21;24.30;1.00
20463;DHT22;10390;53.566;9.980;2023-02-03T13:02:55;24.30;1.00
20463;DHT22;10390;53.566;9.980;2023-02-03T13:05:49;24.30;1.00
20463;DHT22;10390;53.566;9.980;2023-02-03T13:08:31;24.30;1.00
20463;DHT22;10390;53.566;9.980;2023-02-03T13:11:09;24.40;1.00
20463;DHT22;10390;53.566;9.980;2023-02-03T13:14:00;24.40;1.00
20463;DHT22;10390;53.566;9.980;2023-02-03T13:16:34;24.40;1.00
20463;DHT22;10390;53.566;9.980;2023-02-03T13:19:05;24.50;1.00
20463;DHT22;10390;53.566;9.980;2023-02-03T13:21:32;24.50;1.00
20463;DHT22;10390;53.566;9.980;2023-02-03T13:23:58;24.50;1.00
20463;DHT22;10390;53.566;9.980;2023-02-03T13:26:54;24.50;1.00
20463;DHT22;10390;53.566;9.980;2023-02-03T13:32:45;24.50;1.00
20463;DHT22;10390;53.566;9.980;2023-02-03T13:44:24;24.30;1.00
20463;DHT22;10390;53.566;9.980;2023-02-03T13:46:54;24.40;1.00
20463;DHT22;10390;53.566;9.980;2023-02-03T13:49:27;24.30;1.00
20463;DHT22;10390;53.566;9.980;2023-02-03T13:51:53;24.30;1.00
20463;DHT22;10390;53.566;9.980;2023-02-03T13:54:34;24.30;1.00
20463;DHT22;10390;53.566;9.980;2023-02-03T13:57:14;24.30;1.00
20463;DHT22;10390;53.566;9.980;2023-02-03T13:59:44;24.30;1.00
20463;DHT22;10390;53.566;9.980;2023-02-03T14:07:38;24.30;1.00
20463;DHT22;10390;53.566;9.980;2023-02-03T14:10:21;24.30;1.00
20463;DHT22;10390;53.566;9.980;2023-02-03T14:18:04;24.20;1.00
20463;DHT22;10390;53.566;9.980;2023-02-03T14:20:37;24.20;1.00
20463;DHT22;10390;53.566;9.980;2023-02-03T14:23:10;24.30;1.00
20463;DHT22;10390;53.566;9.980;2023-02-03T14:28:12;24.30;1.00
20463;DHT22;10390;53.566;9.980;2023-02-03T14:38:50;24.20;1.00
20463;DHT22;10390;53.566;9.980;2023-02-03T14:41:22;24.20;1.00
20463;DHT22;10390;53.566;9.980;2023-02-03T14:43:59;24.30;1.00
20463;DHT22;10390;53.566;9.980;2023-02-03T14:47:00;24.30;1.00
20463;DHT22;10390;53.566;9.980;2023-02-03T14:57:53;24.40;1.00
20463;DHT22;10390;53.566;9.980;2023-02-03T15:08:33;24.60;1.00
20463;DHT22;10390;53.566;9.980;2023-02-03T15:13:45;24.60;1.00
20463;DHT22;10390;53.566;9.980;2023-02-03T15:16:18;24.70;1.00
20463;DHT22;10390;53.566;9.980;2023-02-03T15:18:43;24.60;1.00
20463;DHT22;10390;53.566;9.980;2023-02-03T15:21:17;24.70;1.00
20463;DHT22;10390;53.566;9.980;2023-02-03T15:23:45;24.60;1.00
20463;DHT22;10390;53.566;9.980;2023-02-03T15:26:21;24.60;1.00
20463;DHT22;10390;53.566;9.980;2023-02-03T15:28:56;24.60;1.00
20463;DHT22;10390;53.566;9.980;2023-02-03T15:31:53;24.60;1.00
20463;DHT22;10390;53.566;9.980;2023-02-03T15:37:09;24.50;1.00
20463;DHT22;10390;53.566;9.980;2023-02-03T15:39:46;24.50;1.00
20463;DHT22;10390;53.566;9.980;2023-02-03T15:47:51;24.40;1.00
20463;DHT22;10390;53.566;9.980;2023-02-03T15:50:25;24.40;1.00
20463;DHT22;10390;53.566;9.980;2023-02-03T15:52:55;24.30;1.00
20463;DHT22;10390;53.566;9.980;2023-02-03T15:57:54;24.30;1.00
20463;DHT22;10390;53.566;9.980;2023-02-03T16:00:30;24.30;1.00
20463;DHT22;10390;53.566;9.980;2023-02-03T16:02:58;24.40;1.00
20463;DHT22;10390;53.566;9.980;2023-02-03T16:05:27;24.40;1.00
20463;DHT22;10390;53.566;9.980;2023-02-03T16:07:53;24.50;1.00
20463;DHT22;10390;53.566;9.980;2023-02-03T16:10:32;24.50;1.00
20463;DHT22;10390;53.566;9.980;2023-02-03T16:13:22;24.50;1.00
20463;DHT22;10390;53.566;9.980;2023-02-03T16:16:04;24.60;1.00
20463;DHT22;10390;53.566;9.980;2023-02-03T16:18:32;24.60;1.00
20463;DHT22;10390;53.566;9.980;2023-02-03T16:21:00;24.60;1.00
20463;DHT22;10390;53.566;9.980;2023-02-03T16:23:26;24.70;1.00
20463;DHT22;10390;53.566;9.980;2023-02-03T16:28:32;24.60;1.00
20463;DHT22;10390;53.566;9.980;2023-02-03T16:31:19;24.60;1.00
20463;DHT22;10390;53.566;9.980;2023-02-03T16:34:15;24.60;1.00
20463;DHT22;10390;53.566;9.980;2023-02-03T16:37:00;24.60;1.00
20463;DHT22;10390;53.566;9.980;2023-02-03T16:39:44;24.50;1.00
20463;DHT22;10390;53.566;9.980;2023-02-03T16:42:37;24.50;1.00
20463;DHT22;10390;53.566;9.980;2023-02-03T16:45:22;24.50;1.00
20463;DHT22;10390;53.566;9.980;2023-02-03T16:48:11;24.50;1.00
20463;DHT22;10390;53.566;9.980;2023-02-03T16:50:57;24.50;1.00
20463;DHT22;10390;53.566;9.980;2023-02-03T16:53:30;24.40;1.00
20463;DHT22;10390;53.566;9.980;2023-02-03T16:55:59;24.40;1.00
20463;DHT22;10390;53.566;9.980;2023-02-03T16:58:26;24.40;1.00
20463;DHT22;10390;53.566;9.980;2023-02-03T17:00:52;24.40;1.00
20463;DHT22;10390;53.566;9.980;2023-02-03T17:03:20;24.30;1.00
20463;DHT22;10390;53.566;9.980;2023-02-03T17:05:48;24.30;1.00
20463;DHT22;10390;53.566;9.980;2023-02-03T17:08:14;24.30;1.00
20463;DHT22;10390;53.566;9.980;2023-02-03T17:10:42;24.30;1.00
20463;DHT22;10390;53.566;9.980;2023-02-03T17:13:08;24.30;1.00
20463;DHT22;10390;53.566;9.980;2023-02-03T17:15:38;24.30;1.00
20463;DHT22;10390;53.566;9.980;2023-02-03T17:18:04;24.30;1.00
20463;DHT22;10390;53.566;9.980;2023-02-03T17:20:29;24.40;1.00
20463;DHT22;10390;53.566;9.980;2023-02-03T17:22:55;24.50;1.00
20463;DHT22;10390;53.566;9.980;2023-02-03T17:25:21;24.60;1.00
20463;DHT22;10390;53.566;9.980;2023-02-03T17:27:46;24.70;1.00
20463;DHT22;10390;53.566;9.980;2023-02-03T17:30:13;24.80;1.00
20463;DHT22;10390;53.566;9.980;2023-02-03T17:32:39;24.90;1.00
20463;DHT22;10390;53.566;9.980;2023-02-03T17:35:05;25.10;1.00
20463;DHT22;10390;53.566;9.980;2023-02-03T17:37:35;25.10;1.00
20463;DHT22;10390;53.566;9.980;2023-02-03T17:40:01;25.20;1.00
20463;DHT22;10390;53.566;9.980;2023-02-03T17:42:27;25.30;1.00
20463;DHT22;10390;53.566;9.980;2023-02-03T17:44:53;25.40;1.00
20463;DHT22;10390;53.566;9.980;2023-02-03T17:47:18;25.50;1.00
20463;DHT22;10390;53.566;9.980;2023-02-03T17:49:44;25.60;1.00
20463;DHT22;10390;53.566;9.980;2023-02-03T17:52:11;25.70;1.00
20463;DHT22;10390;53.566;9.980;2023-02-03T17:54:37;25.80;1.00
20463;DHT22;10390;53.566;9.980;2023-02-03T17:57:03;25.80;1.00
20463;DHT22;10390;53.566;9.980;2023-02-03T17:59:29;25.90;1.00
20463;DHT22;10390;53.566;9.980;2023-02-03T18:01:54;25.90;1.00
20463;DHT22;10390;53.566;9.980;2023-02-03T18:04:20;26.00;1.00
20463;DHT22;10390;53.566;9.980;2023-02-03T18:06:46;26.10;1.00
20463;DHT22;10390;53.566;9.980;2023-02-03T18:09:11;26.10;1.00
20463;DHT22;10390;53.566;9.980;2023-02-03T18:11:41;26.20;1.00
20463;DHT22;10390;53.566;9.980;2023-02-03T18:14:08;26.20;1.00
20463;DHT22;10390;53.566;9.980;2023-02-03T18:16:35;26.30;1.00
20463;DHT22;10390;53.566;9.980;2023-02-03T18:19:06;26.30;1.00
20463;DHT22;10390;53.566;9.980;2023-02-03T18:21:33;26.40;1.00
20463;DHT22;10390;53.566;9.980;2023-02-03T18:24:01;26.40;1.00